Time;durP1;ratioP1;P1;durP2;ratioP2;P2;SDS_P1;SDS_P2;PMS_P1;PMS_P2;Temp;Humidity;BMP_temperature;BMP_pressure;BME280_temperature;BME280_humidity;BME280_pressure;Samples;Min_cycle;Max_cycle;Signal;HPM_P1;HPM_P2
2022/12/17 13:06:51;;;;;;;;;66.33;48.67;;;;;3.00;61.50;102037.59;5072705;27;45668;-65
2022/12/17 13:09:19;;;;;;;;;56.67;44.33;;;;;3.04;60.51;102037.84;5077103;28;45555;-65
2022/12/17 13:12:03;;;;;;;;;63.67;47.33;;;;;3.05;60.22;102037.03;5075416;28;45490;-65
2022/12/17 13:14:34;;;;;;;;;68.00;50.67;;;;;2.91;60.19;102020.75;5047725;28;47146;-64
2022/12/17 13:17:05;;;;;;;;;65.33;49.00;;;;;2.98;60.26;102030.63;5072013;28;45621;-66
2022/12/17 13:19:34;;;;;;;;;62.33;48.67;;;;;3.03;60.70;102032.56;5054494;28;45535;-64
2022/12/17 13:22:15;;;;;;;;;70.67;51.00;;;;;2.94;60.39;102032.97;5073264;28;45493;-64
2022/12/17 13:24:45;;;;;;;;;65.00;50.33;;;;;2.88;61.04;102023.19;5073769;28;46574;-64
2022/12/17 13:27:30;;;;;;;;;61.33;50.00;;;;;2.70;59.86;102030.81;5075311;28;45703;-65
2022/12/17 13:29:58;;;;;;;;;61.67;46.67;;;;;2.67;60.93;102025.50;5076420;28;45497;-64
2022/12/17 13:32:39;;;;;;;;;63.33;49.00;;;;;2.77;60.49;102026.88;5058330;28;45445;-64
2022/12/17 13:35:28;;;;;;;;;63.67;47.00;;;;;2.63;60.32;102038.16;5052548;28;46216;-63
2022/12/17 13:38:15;;;;;;;;;63.33;46.33;;;;;2.49;60.75;102029.66;5046057;28;45655;-64
2022/12/17 13:40:59;;;;;;;;;61.33;45.67;;;;;2.27;60.73;102027.56;5075747;28;45402;-64
2022/12/17 13:43:32;;;;;;;;;61.00;45.00;;;;;2.25;61.46;102032.63;5069988;28;45419;-64
2022/12/17 13:45:57;;;;;;;;;57.67;44.67;;;;;2.32;61.22;102033.88;5056807;28;47245;-64
2022/12/17 13:48:26;;;;;;;;;61.00;47.00;;;;;2.38;61.32;102035.94;5079326;28;45572;-65
2022/12/17 13:51:01;;;;;;;;;61.67;46.00;;;;;2.36;60.79;102024.63;5078735;27;45469;-64
2022/12/17 13:53:28;;;;;;;;;67.00;49.00;;;;;2.32;61.00;102033.88;5076091;27;45335;-65
2022/12/17 13:55:56;;;;;;;;;66.00;48.33;;;;;2.19;61.39;102009.03;5075773;27;46102;-64
2022/12/17 13:58:31;;;;;;;;;61.67;45.00;;;;;2.27;60.61;102020.69;5076789;27;45381;-64
2022/12/17 14:01:08;;;;;;;;;62.33;48.00;;;;;2.19;61.59;102026.25;5076400;27;45482;-65
2022/12/17 14:03:36;;;;;;;;;58.00;44.67;;;;;2.18;61.52;102024.47;5074942;28;45460;-66
2022/12/17 14:06:03;;;;;;;;;60.00;46.00;;;;;2.10;61.30;102019.75;5057843;28;45376;-66
2022/12/17 14:08:31;;;;;;;;;62.00;47.33;;;;;2.05;61.02;102034.09;5075571;28;45487;-63
2022/12/17 14:13:44;;;;;;;;;60.00;46.00;;;;;1.74;61.74;102038.31;5074344;28;45720;-64
2022/12/17 14:16:15;;;;;;;;;62.00;49.00;;;;;1.52;62.25;102033.53;5057368;28;46748;-64
2022/12/17 14:18:46;;;;;;;;;64.67;46.33;;;;;1.47;62.38;102041.00;5057471;28;45806;-64
2022/12/17 14:21:12;;;;;;;;;66.33;49.00;;;;;1.48;63.08;102045.41;5067761;27;45529;-64
2022/12/17 14:23:39;;;;;;;;;61.67;44.67;;;;;1.46;62.96;102031.50;5061547;28;45719;-63
2022/12/17 14:26:09;;;;;;;;;60.00;46.33;;;;;1.46;63.13;102037.53;5075791;28;45491;-65
2022/12/17 14:28:43;;;;;;;;;57.00;43.67;;;;;1.46;63.05;102049.56;5078421;27;45399;-64
2022/12/17 14:31:23;;;;;;;;;58.33;42.33;;;;;1.54;62.06;102042.28;5075964;27;45396;-64
2022/12/17 14:34:09;;;;;;;;;54.67;44.67;;;;;1.55;61.33;102052.72;5055303;27;45551;-65
2022/12/17 14:36:37;;;;;;;;;59.67;43.33;;;;;1.56;61.74;102051.91;5075337;28;47097;-64
2022/12/17 14:39:19;;;;;;;;;55.33;41.33;;;;;1.57;62.55;102051.13;5075006;27;45488;-64
2022/12/17 14:44:30;;;;;;;;;58.33;42.00;;;;;1.52;61.96;102044.78;5058109;28;45484;-65
2022/12/17 14:47:20;;;;;;;;;53.00;41.67;;;;;1.57;62.57;102052.81;5077794;28;45527;-64
2022/12/17 14:49:56;;;;;;;;;55.00;43.67;;;;;1.55;62.05;102049.25;5074687;28;45760;-64
2022/12/17 14:52:35;;;;;;;;;56.00;41.33;;;;;1.52;61.61;102060.28;5057148;28;45608;-65
2022/12/17 14:55:20;;;;;;;;;61.00;43.67;;;;;1.47;61.64;102054.84;5073745;27;45484;-64
2022/12/17 14:57:46;;;;;;;;;61.33;44.00;;;;;1.45;61.35;102056.44;5057508;28;46186;-64
2022/12/17 15:00:12;;;;;;;;;62.33;47.00;;;;;1.41;61.82;102045.81;5076447;28;46081;-63
2022/12/17 15:02:38;;;;;;;;;56.67;43.33;;;;;1.33;62.62;102040.22;5060046;28;45504;-65
2022/12/17 15:05:04;;;;;;;;;54.00;41.00;;;;;1.21;61.85;102027.47;5073155;28;45604;-66
2022/12/17 15:07:32;;;;;;;;;55.00;43.00;;;;;1.26;62.61;102035.47;5074309;27;46628;-66
2022/12/17 15:09:57;;;;;;;;;58.33;45.00;;;;;1.25;62.93;102044.88;5077637;28;45668;-65
2022/12/17 15:12:24;;;;;;;;;59.67;45.00;;;;;1.23;61.95;102037.84;5073955;28;45653;-64
2022/12/17 15:14:50;;;;;;;;;57.67;42.00;;;;;1.20;61.96;102038.56;5070187;28;45565;-65
2022/12/17 15:17:16;;;;;;;;;62.00;43.00;;;;;1.11;61.36;102045.75;5074071;28;45469;-66
2022/12/17 15:19:42;;;;;;;;;53.00;38.00;;;;;1.01;62.42;102045.97;5074414;28;45486;-66
2022/12/17 15:22:16;;;;;;;;;52.33;39.67;;;;;0.94;61.53;102041.25;5074677;28;45437;-65
2022/12/17 15:24:43;;;;;;;;;56.00;36.00;;;;;0.92;61.94;102041.13;5055758;28;45570;-66
2022/12/17 15:27:15;;;;;;;;;55.00;40.00;;;;;0.89;62.31;102040.06;5056031;28;45438;-63
2022/12/17 15:29:41;;;;;;;;;55.00;42.00;;;;;0.73;61.94;102036.50;5056817;28;45428;-67
2022/12/17 15:32:07;;;;;;;;;59.00;42.33;;;;;0.71;62.23;102026.91;5071415;28;45588;-65
2022/12/17 15:34:33;;;;;;;;;55.00;39.00;;;;;0.69;62.80;102034.56;5074343;27;45579;-64
2022/12/17 15:36:58;;;;;;;;;55.67;41.00;;;;;0.66;62.66;102033.47;5073405;27;46021;-65
2022/12/17 15:39:24;;;;;;;;;51.33;40.00;;;;;0.73;62.38;102044.25;5052763;28;45484;-65
2022/12/17 15:44:34;;;;;;;;;57.67;43.33;;;;;0.62;63.17;102042.72;5057499;28;45442;-66
2022/12/17 15:46:59;;;;;;;;;50.00;40.00;;;;;0.55;63.35;102037.97;5057606;28;46620;-67
2022/12/17 15:49:25;;;;;;;;;60.33;44.00;;;;;0.56;62.82;102042.31;5064216;28;45466;-67
2022/12/17 15:51:50;;;;;;;;;54.67;40.33;;;;;0.59;63.24;102042.50;5055955;28;45482;-69
2022/12/17 15:54:16;;;;;;;;;58.67;38.67;;;;;0.70;63.89;102069.84;5074315;28;45458;-69
2022/12/17 15:56:41;;;;;;;;;55.33;44.33;;;;;0.73;63.31;102066.56;5076055;28;45726;-65
2022/12/17 15:59:07;;;;;;;;;58.67;45.00;;;;;0.63;63.97;102059.94;5074215;28;45526;-65
2022/12/17 16:01:32;;;;;;;;;51.00;40.67;;;;;0.68;63.83;102063.72;5072094;28;45770;-64
2022/12/17 16:03:59;;;;;;;;;58.00;42.67;;;;;0.70;63.39;102063.81;5053985;28;45514;-63
2022/12/17 16:06:25;;;;;;;;;66.00;45.67;;;;;0.70;63.71;102075.00;5062436;28;47608;-64
2022/12/17 16:08:50;;;;;;;;;53.33;40.67;;;;;0.75;64.12;102078.78;5071968;28;46467;-64
2022/12/17 16:11:16;;;;;;;;;55.33;39.33;;;;;0.70;64.22;102080.16;5070289;27;45839;-67
2022/12/17 16:13:41;;;;;;;;;53.67;39.67;;;;;0.71;64.00;102074.19;5050611;28;45805;-64
2022/12/17 16:16:07;;;;;;;;;61.67;44.33;;;;;0.71;63.93;102079.38;5050608;28;46689;-64
2022/12/17 16:18:34;;;;;;;;;58.67;44.00;;;;;0.70;63.18;102076.72;5066522;28;45579;-64
2022/12/17 16:21:04;;;;;;;;;56.67;43.00;;;;;0.63;62.71;102078.88;5055903;28;45381;-66
2022/12/17 16:23:30;;;;;;;;;51.33;38.67;;;;;0.44;62.46;102078.50;5052877;28;45736;-66
2022/12/17 16:26:02;;;;;;;;;53.00;42.00;;;;;0.42;62.87;102065.50;5055780;28;45846;-64
2022/12/17 16:28:28;;;;;;;;;42.33;35.00;;;;;0.39;63.06;102069.59;5053525;28;45561;-66
2022/12/17 16:31:14;;;;;;;;;56.67;41.33;;;;;0.45;62.63;102072.53;5052396;27;45914;-63
2022/12/17 16:33:42;;;;;;;;;56.33;43.33;;;;;0.33;63.30;102064.94;5055812;28;45768;-65
2022/12/17 16:36:12;;;;;;;;;55.67;40.67;;;;;0.39;63.49;102077.31;5057300;28;45750;-65
2022/12/17 16:38:45;;;;;;;;;59.33;44.00;;;;;0.40;63.61;102067.13;5053349;28;45788;-64
2022/12/17 16:41:12;;;;;;;;;62.00;45.00;;;;;0.35;63.70;102065.03;5044128;28;45698;-64
2022/12/17 16:43:38;;;;;;;;;56.67;43.67;;;;;0.41;64.24;102074.06;5035518;28;45823;-64
2022/12/17 16:46:04;;;;;;;;;57.33;42.33;;;;;0.45;63.72;102092.28;5063497;27;45598;-66
2022/12/17 16:48:36;;;;;;;;;60.67;46.00;;;;;0.39;63.91;102077.31;5050694;27;45520;-63
2022/12/17 16:51:15;;;;;;;;;53.00;37.33;;;;;0.35;63.84;102073.63;5045657;28;46033;-64
2022/12/17 16:53:41;;;;;;;;;56.33;41.00;;;;;0.32;63.02;102080.28;5057005;28;46294;-63
2022/12/17 16:56:07;;;;;;;;;53.67;38.33;;;;;0.21;63.10;102071.84;5050000;27;45572;-64
2022/12/17 16:58:33;;;;;;;;;54.33;39.33;;;;;0.10;63.60;102053.13;5057871;27;45519;-63
2022/12/17 17:00:59;;;;;;;;;54.33;38.00;;;;;0.05;63.77;102057.09;5056717;28;45617;-63
2022/12/17 17:03:24;;;;;;;;;52.00;38.33;;;;;-0.01;63.80;102060.13;5061230;27;45877;-63
2022/12/17 17:05:50;;;;;;;;;54.67;40.67;;;;;0.00;64.20;102066.22;5060372;28;47107;-65
2022/12/17 17:08:16;;;;;;;;;58.33;40.00;;;;;-0.14;63.75;102060.16;5059567;28;45561;-63
2022/12/17 17:10:41;;;;;;;;;51.67;36.33;;;;;-0.16;64.84;102061.72;5058564;28;45506;-63
2022/12/17 17:13:07;;;;;;;;;51.00;38.33;;;;;-0.20;64.03;102059.72;5061281;28;45565;-63
2022/12/17 17:15:32;;;;;;;;;51.00;38.33;;;;;-0.11;64.19;102072.31;5043226;28;47165;-63
2022/12/17 17:17:58;;;;;;;;;57.67;40.33;;;;;-0.01;64.20;102073.03;5060324;28;45722;-64
2022/12/17 17:20:24;;;;;;;;;59.67;43.33;;;;;-0.06;64.59;102050.34;5058398;28;45429;-65
2022/12/17 17:22:49;;;;;;;;;60.00;41.33;;;;;0.04;64.89;102069.88;5063083;28;45465;-64
2022/12/17 17:25:15;;;;;;;;;61.00;44.67;;;;;0.04;64.10;102077.59;5060857;27;46395;-63
2022/12/17 17:27:41;;;;;;;;;56.67;45.00;;;;;0.03;64.26;102070.66;5058045;27;45537;-65
2022/12/17 17:30:07;;;;;;;;;58.00;44.00;;;;;0.03;64.96;102068.09;5058621;28;45596;-64
2022/12/17 17:32:32;;;;;;;;;56.67;44.33;;;;;0.11;64.69;102072.06;5052360;28;45563;-64
2022/12/17 17:34:58;;;;;;;;;61.67;47.67;;;;;0.10;64.79;102076.31;5047190;28;47416;-65
2022/12/17 17:37:24;;;;;;;;;58.00;45.00;;;;;0.04;64.98;102082.75;5055223;28;45438;-61
2022/12/17 17:39:49;;;;;;;;;63.00;46.67;;;;;-0.02;65.26;102075.53;5052079;28;45460;-64
2022/12/17 17:42:15;;;;;;;;;64.33;47.33;;;;;0.01;65.06;102092.84;5060152;28;45402;-65
2022/12/17 17:44:40;;;;;;;;;61.67;46.00;;;;;-0.03;64.88;102084.00;5056736;28;45577;-65
2022/12/17 17:47:06;;;;;;;;;59.00;45.33;;;;;-0.04;65.35;102079.66;5059270;28;45614;-65
2022/12/17 17:49:31;;;;;;;;;60.00;46.00;;;;;0.01;66.01;102104.03;5065433;28;45498;-63
2022/12/17 17:51:57;;;;;;;;;60.33;44.00;;;;;-0.03;65.28;102099.47;5060360;28;45825;-64
2022/12/17 17:54:22;;;;;;;;;60.67;46.00;;;;;-0.08;65.35;102096.59;5067086;28;46097;-66
2022/12/17 17:56:48;;;;;;;;;62.67;46.67;;;;;-0.15;65.49;102080.63;5047082;28;45390;-66
2022/12/17 17:59:18;;;;;;;;;66.00;48.33;;;;;-0.15;65.76;102084.09;5061859;27;45357;-65
2022/12/17 18:01:48;;;;;;;;;60.67;47.33;;;;;-0.19;65.26;102082.13;5062146;28;45500;-67
2022/12/17 18:04:20;;;;;;;;;67.00;48.33;;;;;-0.29;65.96;102080.59;5046562;28;47545;-66
2022/12/17 18:06:47;;;;;;;;;66.00;49.33;;;;;-0.27;65.56;102072.97;5064308;28;45700;-66
2022/12/17 18:09:13;;;;;;;;;60.67;46.67;;;;;-0.29;66.05;102074.56;5060269;28;45367;-65
2022/12/17 18:11:40;;;;;;;;;68.00;47.33;;;;;-0.48;66.96;102055.28;5067675;28;45937;-66
2022/12/17 18:14:08;;;;;;;;;60.33;46.33;;;;;-0.41;67.14;102064.31;5062489;28;45525;-65
2022/12/17 18:16:39;;;;;;;;;66.67;46.67;;;;;-0.33;66.69;102062.25;5067079;27;45635;-63
2022/12/17 18:19:18;;;;;;;;;68.00;51.67;;;;;-0.35;66.59;102063.84;5047581;28;45568;-66
2022/12/17 18:21:47;;;;;;;;;64.67;47.00;;;;;-0.36;67.49;102056.91;5055410;28;45520;-68
2022/12/17 18:24:15;;;;;;;;;63.33;49.00;;;;;-0.28;67.86;102066.94;5067647;27;46245;-64
2022/12/17 18:26:42;;;;;;;;;68.00;51.00;;;;;-0.23;67.77;102074.97;5058829;27;45457;-68
2022/12/17 18:29:16;;;;;;;;;67.33;50.67;;;;;-0.24;67.29;102080.91;5070367;28;45375;-65
2022/12/17 18:31:42;;;;;;;;;66.33;52.00;;;;;-0.28;67.00;102072.09;5063541;28;45469;-64
2022/12/17 18:34:12;;;;;;;;;71.00;53.00;;;;;-0.21;67.11;102075.97;5061882;28;46384;-65
2022/12/17 18:36:39;;;;;;;;;72.67;53.67;;;;;-0.31;67.40;102063.25;5061857;28;45548;-65
2022/12/17 18:39:07;;;;;;;;;71.33;51.67;;;;;-0.28;67.47;102074.66;5067919;28;45610;-65
2022/12/17 18:44:18;;;;;;;;;71.00;53.00;;;;;-0.34;67.46;102086.22;5064933;27;45819;-64
2022/12/17 18:46:44;;;;;;;;;68.00;52.67;;;;;-0.44;68.13;102093.31;5069393;28;45897;-63
2022/12/17 18:49:13;;;;;;;;;72.00;55.33;;;;;-0.43;67.89;102094.19;5071750;28;45486;-64
2022/12/17 18:51:41;;;;;;;;;78.33;54.00;;;;;-0.47;68.32;102097.38;5070862;28;45683;-65
2022/12/17 18:54:11;;;;;;;;;66.67;51.00;;;;;-0.48;68.05;102096.47;5076247;28;45472;-63
2022/12/17 18:56:37;;;;;;;;;69.67;52.00;;;;;-0.49;68.03;102106.69;5072388;28;45378;-63
2022/12/17 18:59:04;;;;;;;;;75.00;55.00;;;;;-0.47;67.10;102113.72;5070500;28;45309;-64
2022/12/17 19:01:34;;;;;;;;;63.00;47.00;;;;;-0.52;67.81;102115.09;5073617;28;45446;-65
2022/12/17 19:04:02;;;;;;;;;73.33;52.33;;;;;-0.47;68.63;102110.25;5071063;28;46551;-67
2022/12/17 19:06:27;;;;;;;;;75.33;55.00;;;;;-0.44;67.29;102103.63;5077547;28;45323;-65
2022/12/17 19:08:53;;;;;;;;;75.00;55.67;;;;;-0.44;67.07;102108.75;5056052;28;45511;-66
2022/12/17 19:11:20;;;;;;;;;69.67;51.33;;;;;-0.54;67.13;102108.03;5070628;27;45467;-65
2022/12/17 19:13:48;;;;;;;;;74.00;54.00;;;;;-0.54;67.28;102111.50;5076703;28;45588;-68
2022/12/17 19:16:21;;;;;;;;;75.33;53.33;;;;;-0.61;67.18;102091.28;5058137;28;45511;-64
2022/12/17 19:18:52;;;;;;;;;74.33;51.00;;;;;-0.65;67.29;102097.88;5057816;28;45475;-68
2022/12/17 19:21:18;;;;;;;;;71.67;52.33;;;;;-0.66;66.89;102097.78;5045177;28;45780;-65
2022/12/17 19:23:45;;;;;;;;;72.67;52.00;;;;;-0.60;67.45;102113.63;5067539;28;45633;-67
2022/12/17 19:26:16;;;;;;;;;67.00;51.67;;;;;-0.65;66.41;102099.56;5064202;27;45567;-63
2022/12/17 19:28:44;;;;;;;;;67.00;52.00;;;;;-0.59;66.99;102114.53;5054623;28;45457;-64
2022/12/17 19:31:10;;;;;;;;;72.33;52.00;;;;;-0.58;66.82;102113.75;5068406;28;45426;-66
2022/12/17 19:33:37;;;;;;;;;79.33;56.67;;;;;-0.58;66.28;102106.94;5067462;28;46324;-66
2022/12/17 19:36:05;;;;;;;;;71.67;52.33;;;;;-0.74;66.84;102099.81;5059365;28;45968;-65
2022/12/17 19:38:32;;;;;;;;;71.67;50.67;;;;;-0.70;66.30;102099.25;5062564;28;45538;-65
2022/12/17 19:41:07;;;;;;;;;75.00;54.67;;;;;-0.71;66.14;102099.16;5071620;28;45338;-65
2022/12/17 19:43:33;;;;;;;;;74.00;52.00;;;;;-0.70;66.07;102108.66;5066872;28;45755;-65
2022/12/17 19:46:03;;;;;;;;;73.33;54.33;;;;;-0.68;66.22;102110.53;5072329;28;45493;-64
2022/12/17 19:48:31;;;;;;;;;76.67;56.00;;;;;-0.71;66.46;102106.88;5073685;28;45512;-65
2022/12/17 19:50:57;;;;;;;;;74.67;56.00;;;;;-0.87;66.58;102105.78;5073953;28;45468;-63
2022/12/17 19:53:25;;;;;;;;;73.33;52.67;;;;;-0.94;66.33;102102.69;5070706;28;45496;-63
2022/12/17 19:55:54;;;;;;;;;67.33;51.33;;;;;-0.92;66.52;102104.59;5070742;28;45597;-64
2022/12/17 19:58:22;;;;;;;;;69.33;54.67;;;;;-0.93;66.37;102105.34;5055171;28;45709;-63
2022/12/17 20:00:47;;;;;;;;;73.00;54.00;;;;;-1.04;66.57;102096.00;5072231;28;45456;-64
2022/12/17 20:03:16;;;;;;;;;73.67;54.00;;;;;-1.14;67.33;102085.84;5070426;28;46114;-65
2022/12/17 20:05:43;;;;;;;;;73.00;55.00;;;;;-1.13;66.63;102103.97;5075908;28;45517;-65
2022/12/17 20:08:09;;;;;;;;;64.67;52.00;;;;;-1.12;67.28;102108.31;5069271;28;45552;-66
2022/12/17 20:10:34;;;;;;;;;76.00;55.00;;;;;-1.05;66.84;102117.34;5083294;27;45449;-66
2022/12/17 20:13:00;;;;;;;;;69.33;54.33;;;;;-1.02;66.97;102126.97;5059572;28;46123;-65
2022/12/17 20:15:25;;;;;;;;;75.33;53.00;;;;;-1.16;67.37;102115.72;5060856;28;45406;-65
2022/12/17 20:17:51;;;;;;;;;73.33;55.33;;;;;-1.07;68.11;102137.84;5051401;27;46151;-66
2022/12/17 20:20:17;;;;;;;;;73.00;52.67;;;;;-1.11;67.00;102125.53;5062888;28;45526;-65
2022/12/17 20:22:42;;;;;;;;;78.33;59.00;;;;;-1.16;67.50;102132.03;5058627;28;46377;-65
2022/12/17 20:25:10;;;;;;;;;72.33;54.67;;;;;-1.25;67.52;102117.63;5060609;28;45523;-65
2022/12/17 20:27:37;;;;;;;;;79.33;54.67;;;;;-1.37;67.80;102149.38;5055754;27;45601;-64
2022/12/17 20:30:04;;;;;;;;;74.67;54.67;;;;;-1.51;67.79;102143.22;5057183;28;45526;-63
2022/12/17 20:32:30;;;;;;;;;75.00;53.67;;;;;-1.56;68.25;102148.81;5062641;28;46632;-65
2022/12/17 20:34:55;;;;;;;;;75.67;55.33;;;;;-1.41;67.68;102154.16;5051216;28;45704;-64
2022/12/17 20:37:21;;;;;;;;;69.00;51.00;;;;;-1.44;67.86;102142.00;5069529;28;45967;-65
2022/12/17 20:39:46;;;;;;;;;80.50;58.00;;;;;-1.32;67.64;102145.44;5070989;28;45484;-66
2022/12/17 20:42:12;;;;;;;;;75.67;55.67;;;;;-1.50;68.09;102152.69;5051101;28;46749;-65
2022/12/17 20:44:38;;;;;;;;;76.33;56.67;;;;;-1.56;68.65;102146.25;5066104;28;45454;-66
2022/12/17 20:47:04;;;;;;;;;80.33;58.00;;;;;-1.45;68.44;102145.31;5070755;28;45483;-64
2022/12/17 20:49:30;;;;;;;;;75.33;57.67;;;;;-1.37;67.90;102156.19;5070131;28;45216;-64
2022/12/17 20:51:55;;;;;;;;;74.67;56.67;;;;;-1.50;68.06;102152.69;5066340;28;45752;-63
2022/12/17 20:54:21;;;;;;;;;77.00;57.00;;;;;-1.60;67.82;102134.81;5070214;28;45410;-64
2022/12/17 20:56:47;;;;;;;;;75.25;58.25;;;;;-1.52;68.15;102164.56;5070252;28;45636;-65
2022/12/17 20:59:15;;;;;;;;;73.33;55.67;;;;;-1.54;68.73;102171.25;5061308;28;47127;-63
2022/12/17 21:01:40;;;;;;;;;75.67;55.00;;;;;-1.63;68.92;102173.16;5070439;28;47062;-64
2022/12/17 21:04:06;;;;;;;;;60.67;50.67;;;;;-1.62;68.79;102174.03;5083824;27;45464;-65
2022/12/17 21:06:38;;;;;;;;;79.00;56.00;;;;;-1.72;68.58;102172.47;5069163;28;45446;-64
2022/12/17 21:09:04;;;;;;;;;73.00;55.00;;;;;-1.79;68.94;102171.09;5066034;28;45620;-65
2022/12/17 21:11:31;;;;;;;;;71.00;53.67;;;;;-1.93;69.42;102158.91;5050806;28;45603;-64
2022/12/17 21:14:04;;;;;;;;;77.33;56.00;;;;;-2.02;69.16;102159.09;5052245;28;45668;-64
2022/12/17 21:16:30;;;;;;;;;74.67;55.33;;;;;-2.08;69.73;102153.50;5069614;28;45497;-65
2022/12/17 21:18:58;;;;;;;;;76.00;54.67;;;;;-2.02;68.99;102156.53;5055951;28;45386;-64
2022/12/17 21:21:27;;;;;;;;;73.67;54.67;;;;;-1.93;69.15;102161.47;5069757;28;45474;-65
2022/12/17 21:23:54;;;;;;;;;77.00;54.00;;;;;-1.86;68.47;102176.56;5070893;28;45708;-64
2022/12/17 21:26:29;;;;;;;;;73.00;50.67;;;;;-1.87;68.96;102164.50;5050621;28;45526;-64
2022/12/17 21:28:55;;;;;;;;;75.67;54.33;;;;;-1.84;68.39;102169.88;5084666;27;45520;-64
2022/12/17 21:31:30;;;;;;;;;76.00;53.00;;;;;-1.96;69.10;102167.28;5069146;27;45490;-65
2022/12/17 21:34:28;;;;;;;;;76.67;52.00;;;;;-1.99;69.10;102154.22;5064473;27;45774;-63
2022/12/17 21:37:24;;;;;;;;;71.67;53.00;;;;;-1.97;68.83;102157.78;5065299;28;46370;-66
2022/12/17 21:39:55;;;;;;;;;75.25;55.25;;;;;-2.01;69.73;102160.91;5044853;28;45377;-65
2022/12/17 21:45:05;;;;;;;;;76.00;54.33;;;;;-1.99;69.50;102158.47;5067655;28;45829;-62
2022/12/17 21:47:48;;;;;;;;;78.50;57.25;;;;;-2.05;69.77;102152.84;5054131;28;46565;-63
2022/12/17 21:50:14;;;;;;;;;76.25;56.75;;;;;-2.23;70.36;102142.06;5074017;27;45914;-64
2022/12/17 21:52:43;;;;;;;;;77.00;56.25;;;;;-2.23;69.66;102153.25;5072816;28;45509;-65
2022/12/17 21:55:09;;;;;;;;;79.00;58.25;;;;;-2.19;69.81;102139.84;5053592;28;45555;-63
2022/12/17 21:57:47;;;;;;;;;70.50;54.25;;;;;-2.06;69.72;102145.94;5073047;28;45517;-64
2022/12/17 22:00:14;;;;;;;;;74.00;55.75;;;;;-2.19;69.92;102141.53;5070406;28;45880;-63
2022/12/17 22:02:39;;;;;;;;;76.75;57.25;;;;;-2.25;70.01;102121.44;5072296;28;46116;-63
2022/12/17 22:05:05;;;;;;;;;75.75;54.25;;;;;-2.18;69.19;102144.22;5051809;28;46671;-64
2022/12/17 22:07:31;;;;;;;;;78.00;55.00;;;;;-2.31;69.44;102109.81;5070292;28;45381;-65
2022/12/17 22:09:56;;;;;;;;;79.33;57.33;;;;;-2.24;69.56;102118.09;5073186;28;45841;-63
2022/12/17 22:15:08;;;;;;;;;75.75;56.25;;;;;-2.49;70.21;102114.41;5073007;28;45956;-63
2022/12/17 22:17:34;;;;;;;;;74.50;55.50;;;;;-2.62;70.98;102121.19;5072189;28;45499;-63
2022/12/17 22:19:59;;;;;;;;;70.67;53.00;;;;;-2.67;71.07;102116.47;5054482;28;45583;-63
2022/12/17 22:22:25;;;;;;;;;77.00;56.00;;;;;-2.58;71.45;102118.09;5053982;28;47756;-64
2022/12/17 22:24:51;;;;;;;;;74.50;56.00;;;;;-2.53;70.75;102117.56;5054290;28;45480;-64
2022/12/17 22:27:16;;;;;;;;;78.75;58.75;;;;;-2.67;71.66;102107.09;5072838;28;45452;-66
2022/12/17 22:35:10;;;;;;;;;80.75;56.00;;;;;-2.57;70.74;102137.81;5072385;28;45431;-64
2022/12/17 22:37:36;;;;;;;;;76.25;55.00;;;;;-2.67;71.61;102116.47;5058991;28;45777;-64
2022/12/17 22:40:02;;;;;;;;;78.00;58.00;;;;;-2.73;71.96;102106.63;5072580;28;45597;-65
2022/12/17 22:45:12;;;;;;;;;74.67;56.00;;;;;-2.72;71.98;102111.00;5062662;28;46000;-63
2022/12/17 22:47:37;;;;;;;;;76.50;54.50;;;;;-2.65;71.87;102120.94;5050303;28;45592;-64
2022/12/17 22:50:03;;;;;;;;;78.00;55.25;;;;;-2.62;70.70;102100.66;5067243;28;46442;-65
2022/12/17 22:52:29;;;;;;;;;75.00;54.50;;;;;-2.68;70.97;102089.94;5053611;28;45394;-64
2022/12/17 22:54:55;;;;;;;;;73.00;55.25;;;;;-2.63;70.33;102108.25;5053250;28;45738;-64
2022/12/17 22:57:20;;;;;;;;;69.00;53.67;;;;;-2.60;70.80;102117.06;5072730;28;45437;-64
2022/12/17 22:59:46;;;;;;;;;77.25;55.00;;;;;-2.67;70.01;102103.66;5072226;28;45781;-63
2022/12/17 23:02:11;;;;;;;;;74.50;58.25;;;;;-2.71;71.24;102111.88;5053165;28;48046;-63
2022/12/17 23:04:37;;;;;;;;;79.00;56.00;;;;;-2.79;70.96;102085.66;5067642;28;45516;-65
2022/12/17 23:07:02;;;;;;;;;73.33;57.00;;;;;-2.80;70.99;102088.97;5050785;28;45477;-66
2022/12/17 23:09:28;;;;;;;;;79.75;55.75;;;;;-2.73;70.82;102093.78;5067975;28;45390;-64
2022/12/17 23:11:54;;;;;;;;;85.25;57.50;;;;;-2.73;70.82;102095.47;5054259;28;47804;-65
2022/12/17 23:14:20;;;;;;;;;70.50;55.25;;;;;-2.94;71.27;102075.13;5068315;28;45422;-64
2022/12/17 23:16:46;;;;;;;;;79.75;57.00;;;;;-2.93;71.53;102076.00;5051612;28;45529;-63
2022/12/17 23:19:12;;;;;;;;;80.75;57.75;;;;;-2.85;71.17;102074.91;5066224;28;45606;-64
2022/12/17 23:21:37;;;;;;;;;76.33;55.33;;;;;-2.92;71.32;102082.91;5070954;28;45540;-64
2022/12/17 23:24:04;;;;;;;;;79.50;57.00;;;;;-3.07;72.10;102074.91;5053815;28;45579;-64
2022/12/17 23:26:33;;;;;;;;;80.75;57.00;;;;;-3.02;71.57;102086.41;5071692;27;45547;-63
2022/12/17 23:29:01;;;;;;;;;72.50;56.25;;;;;-3.02;71.72;102088.97;5070657;28;45416;-64
2022/12/17 23:31:31;;;;;;;;;69.75;51.25;;;;;-3.09;72.04;102055.94;5051887;28;46427;-65
2022/12/17 23:33:57;;;;;;;;;74.50;56.75;;;;;-2.99;72.22;102071.25;5049144;28;45967;-64
2022/12/17 23:36:25;;;;;;;;;73.75;53.50;;;;;-3.07;72.47;102070.69;5071544;28;45442;-63
2022/12/17 23:38:51;;;;;;;;;76.50;58.25;;;;;-3.17;71.99;102069.84;5052535;28;45587;-64
2022/12/17 23:41:22;;;;;;;;;75.25;57.00;;;;;-3.25;72.36;102049.66;5070776;28;46449;-65
2022/12/17 23:43:49;;;;;;;;;74.33;52.00;;;;;-3.05;72.03;102076.81;5071305;27;45345;-64
2022/12/17 23:46:16;;;;;;;;;80.00;58.00;;;;;-3.03;72.62;102072.72;5071414;28;45347;-65
2022/12/17 23:48:44;;;;;;;;;79.75;59.50;;;;;-3.00;71.80;102078.06;5060082;28;46479;-66
2022/12/17 23:51:13;;;;;;;;;75.00;57.00;;;;;-3.03;72.18;102080.41;5053326;28;47694;-63
2022/12/17 23:53:39;;;;;;;;;74.00;56.00;;;;;-3.00;72.37;102077.19;5067501;28;45650;-65
2022/12/17 23:56:10;;;;;;;;;72.50;53.50;;;;;-3.03;72.11;102065.03;5053583;28;46580;-63
2022/12/17 23:58:37;;;;;;;;;66.25;54.50;;;;;-2.91;72.12;102084.72;5066364;28;45409;-65
